Time;durP1;ratioP1;P1;durP2;ratioP2;P2;SDS_P1;SDS_P2;PMS_P1;PMS_P2;Temp;Humidity;BMP_temperature;BMP_pressure;BME280_temperature;BME280_humidity;BME280_pressure;Samples;Min_cycle;Max_cycle;Signal;HPM_P1;HPM_P2
2022/11/26 00:02:23;;;;;;;18.48;10.05;;;6.20;99.90;;;;;;5051978;28;20124;-48
2022/11/26 00:04:49;;;;;;;17.27;9.07;;;6.20;99.90;;;;;;5044991;28;20094;-46
2022/11/26 00:07:21;;;;;;;15.63;9.10;;;6.20;99.90;;;;;;5047576;28;20078;-48
2022/11/26 00:09:47;;;;;;;23.55;10.35;;;6.20;99.90;;;;;;5045284;28;20501;-45
2022/11/26 00:12:23;;;;;;;19.30;10.45;;;6.20;99.90;;;;;;5041072;28;20063;-52
2022/11/26 00:14:48;;;;;;;20.58;10.32;;;6.20;99.90;;;;;;5048004;28;20116;-50
2022/11/26 00:17:15;;;;;;;15.05;8.90;;;6.20;99.90;;;;;;5059248;28;20451;-48
2022/11/26 00:19:42;;;;;;;20.35;10.13;;;6.20;99.90;;;;;;5047286;28;20363;-49
2022/11/26 00:22:30;;;;;;;16.80;9.77;;;6.20;99.90;;;;;;5037519;28;20029;-54
2022/11/26 00:24:56;;;;;;;17.33;8.90;;;6.30;99.90;;;;;;5046549;28;20392;-48
2022/11/26 00:27:24;;;;;;;20.63;10.32;;;6.30;99.90;;;;;;5050827;28;20029;-48
2022/11/26 00:29:50;;;;;;;21.83;10.50;;;6.30;99.90;;;;;;5057831;28;20481;-49
2022/11/26 00:32:21;;;;;;;16.92;9.65;;;6.20;99.90;;;;;;5051655;28;20031;-45
2022/11/26 00:34:47;;;;;;;22.08;11.65;;;6.30;99.90;;;;;;5038106;28;20040;-45
2022/11/26 00:37:22;;;;;;;22.48;10.27;;;6.30;99.90;;;;;;5034004;28;20033;-47
2022/11/26 00:39:48;;;;;;;24.23;10.57;;;6.20;99.90;;;;;;5040643;28;20053;-45
2022/11/26 00:42:14;;;;;;;18.33;9.35;;;6.20;99.90;;;;;;5036825;28;20036;-50
2022/11/26 00:44:39;;;;;;;19.05;10.43;;;6.30;99.90;;;;;;5057666;28;20033;-46
2022/11/26 00:47:05;;;;;;;26.92;11.18;;;6.20;99.90;;;;;;5036924;28;20048;-49
2022/11/26 00:49:30;;;;;;;22.85;10.05;;;6.20;99.90;;;;;;5048665;28;20479;-47
2022/11/26 00:51:56;;;;;;;24.88;10.77;;;6.20;99.90;;;;;;5046298;28;20029;-46
2022/11/26 00:54:22;;;;;;;18.95;9.57;;;6.20;99.90;;;;;;5048792;28;20576;-45
2022/11/26 00:56:49;;;;;;;18.83;9.95;;;6.30;99.90;;;;;;5047235;28;20040;-47
2022/11/26 00:59:18;;;;;;;18.80;9.60;;;6.30;99.90;;;;;;5052169;28;20124;-50
2022/11/26 01:01:44;;;;;;;27.35;12.27;;;6.30;99.90;;;;;;5046713;28;20037;-47
2022/11/26 01:04:09;;;;;;;24.35;10.68;;;6.30;99.90;;;;;;5051511;28;20075;-46
2022/11/26 01:06:38;;;;;;;28.02;12.02;;;6.30;99.90;;;;;;5042730;28;20068;-47
2022/11/26 01:09:06;;;;;;;25.73;11.68;;;6.30;99.90;;;;;;5053204;28;20080;-48
2022/11/26 01:11:32;;;;;;;27.52;11.20;;;6.30;99.90;;;;;;5049618;28;20261;-48
2022/11/26 01:13:57;;;;;;;22.92;11.00;;;6.40;99.90;;;;;;5051348;28;20041;-53
2022/11/26 01:16:29;;;;;;;27.75;11.27;;;6.40;99.90;;;;;;5050277;28;20121;-50
2022/11/26 01:18:56;;;;;;;24.23;10.48;;;6.40;99.90;;;;;;5059490;28;20045;-49
2022/11/26 01:21:24;;;;;;;19.52;10.82;;;6.40;99.90;;;;;;5043985;28;20041;-48
2022/11/26 01:23:50;;;;;;;24.77;12.10;;;6.40;99.90;;;;;;5052974;28;20027;-51
2022/11/26 01:26:26;;;;;;;28.00;12.52;;;6.40;99.90;;;;;;5051359;28;20050;-48
2022/11/26 01:28:52;;;;;;;19.95;10.32;;;6.40;99.90;;;;;;5033588;28;20090;-47
2022/11/26 01:31:21;;;;;;;27.50;12.48;;;6.40;99.90;;;;;;5047451;28;20037;-50
2022/11/26 01:33:47;;;;;;;35.30;12.55;;;6.40;99.90;;;;;;5060324;28;20033;-50
2022/11/26 01:36:26;;;;;;;29.35;12.43;;;6.40;99.90;;;;;;5051628;28;20035;-50
2022/11/26 01:38:53;;;;;;;25.15;11.77;;;6.40;99.90;;;;;;5046123;28;20041;-51
2022/11/26 01:41:28;;;;;;;26.77;12.00;;;6.40;99.90;;;;;;5050327;28;20041;-53
2022/11/26 01:43:56;;;;;;;23.08;10.75;;;6.40;99.90;;;;;;5055526;28;20471;-49
2022/11/26 01:46:22;;;;;;;29.50;11.85;;;6.40;99.90;;;;;;5041124;28;20196;-47
2022/11/26 01:48:49;;;;;;;30.45;12.00;;;6.40;99.90;;;;;;5052067;28;20747;-48
2022/11/26 01:51:21;;;;;;;33.95;13.60;;;6.40;99.90;;;;;;5051401;28;20028;-51
2022/11/26 01:53:50;;;;;;;30.00;11.55;;;6.40;99.90;;;;;;5041980;28;20096;-48
2022/11/26 01:56:19;;;;;;;34.28;12.85;;;6.40;99.90;;;;;;5043976;28;20029;-48
2022/11/26 01:58:51;;;;;;;28.45;10.90;;;6.40;99.90;;;;;;5055536;28;20021;-49
2022/11/26 02:01:18;;;;;;;29.15;11.57;;;6.40;99.90;;;;;;5031651;28;20379;-50
2022/11/26 02:04:03;;;;;;;23.23;10.98;;;6.40;99.90;;;;;;5060071;28;20037;-48
2022/11/26 02:06:32;;;;;;;29.58;11.40;;;6.40;99.90;;;;;;5032846;28;20029;-50
2022/11/26 02:09:00;;;;;;;31.27;12.75;;;6.40;99.90;;;;;;5051491;28;20120;-45
2022/11/26 02:11:25;;;;;;;29.70;12.88;;;6.40;99.90;;;;;;5049666;28;20033;-50
2022/11/26 02:13:58;;;;;;;29.38;13.27;;;6.40;99.90;;;;;;5053121;28;20106;-48
2022/11/26 02:16:32;;;;;;;33.75;12.90;;;6.50;99.90;;;;;;5037021;28;20033;-47
2022/11/26 02:19:18;;;;;;;25.98;11.15;;;6.50;99.90;;;;;;5032290;28;20393;-48
2022/11/26 02:21:51;;;;;;;28.70;12.35;;;6.50;99.90;;;;;;5032892;28;20042;-50
2022/11/26 02:24:40;;;;;;;27.65;12.30;;;6.50;99.90;;;;;;5041112;28;20538;-50
2022/11/26 02:27:33;;;;;;;25.58;11.02;;;6.50;99.90;;;;;;5042983;28;20060;-47
2022/11/26 02:30:11;;;;;;;27.13;11.73;;;6.50;99.90;;;;;;5040501;28;20067;-49
2022/11/26 02:32:45;;;;;;;25.58;12.93;;;6.60;99.90;;;;;;5035237;28;20052;-49
2022/11/26 02:35:23;;;;;;;27.77;10.95;;;6.60;99.90;;;;;;5029632;28;20066;-45
2022/11/26 02:37:58;;;;;;;24.25;11.93;;;6.60;99.90;;;;;;5039121;28;20497;-46
2022/11/26 02:40:24;;;;;;;24.67;10.88;;;6.60;99.90;;;;;;5040661;28;20048;-45
2022/11/26 02:42:49;;;;;;;33.83;13.38;;;6.60;99.90;;;;;;5042133;28;20036;-48
2022/11/26 02:45:22;;;;;;;25.23;11.50;;;6.60;99.90;;;;;;5055539;28;20040;-46
2022/11/26 02:47:51;;;;;;;24.10;11.50;;;6.60;99.90;;;;;;5047861;28;20033;-45
2022/11/26 02:50:27;;;;;;;26.88;12.98;;;6.70;99.90;;;;;;5049591;28;20400;-50
2022/11/26 02:52:54;;;;;;;;;;;6.70;99.90;;;;;;5053182;28;20025;-50
2022/11/26 02:55:24;;;;;;;23.13;11.63;;;6.70;99.90;;;;;;5048536;28;19912;-48
2022/11/26 02:57:51;;;;;;;25.60;11.48;;;6.70;99.90;;;;;;5048577;28;20319;-47
2022/11/26 03:00:17;;;;;;;27.30;13.02;;;6.70;99.90;;;;;;5053080;28;20041;-48
2022/11/26 03:03:09;;;;;;;25.73;11.48;;;6.70;99.90;;;;;;5050666;28;20395;-48
2022/11/26 03:05:38;;;;;;;24.63;12.35;;;6.70;99.90;;;;;;5029676;28;20037;-48
2022/11/26 03:08:05;;;;;;;28.77;12.48;;;6.70;99.90;;;;;;5057000;28;20488;-45
2022/11/26 03:10:31;;;;;;;29.13;12.77;;;6.70;99.90;;;;;;5048402;28;20033;-49
2022/11/26 03:12:57;;;;;;;22.70;11.15;;;6.80;99.90;;;;;;5047290;28;20056;-47
2022/11/26 03:15:23;;;;;;;29.80;13.55;;;6.80;99.90;;;;;;5065115;28;20016;-51
2022/11/26 03:17:49;;;;;;;23.48;11.52;;;6.80;99.90;;;;;;5067548;28;20036;-49
2022/11/26 03:20:15;;;;;;;22.17;11.52;;;6.80;99.90;;;;;;5050811;28;20033;-50
2022/11/26 03:22:41;;;;;;;24.63;12.05;;;6.80;99.90;;;;;;5071153;28;20027;-48
2022/11/26 03:25:07;;;;;;;27.58;13.75;;;6.80;99.90;;;;;;5052433;28;20041;-47
2022/11/26 03:27:33;;;;;;;21.67;11.18;;;6.80;99.90;;;;;;5070891;28;20538;-47
2022/11/26 03:29:58;;;;;;;28.67;13.23;;;6.90;99.90;;;;;;5051130;28;20037;-45
2022/11/26 03:32:24;;;;;;;26.02;13.05;;;6.90;99.90;;;;;;5070787;28;20028;-50
2022/11/26 03:34:49;;;;;;;26.02;12.45;;;6.90;99.90;;;;;;5049828;28;20396;-47
2022/11/26 03:37:15;;;;;;;21.73;11.60;;;6.90;99.90;;;;;;5070984;28;20085;-49
2022/11/26 03:39:41;;;;;;;22.42;11.60;;;7.00;99.90;;;;;;5052332;28;20064;-51
2022/11/26 03:42:06;;;;;;;22.35;11.70;;;7.00;99.90;;;;;;5049824;28;20098;-51
2022/11/26 03:44:32;;;;;;;22.30;11.65;;;7.00;99.90;;;;;;5070022;28;20043;-46
2022/11/26 03:46:57;;;;;;;26.05;12.32;;;7.10;99.90;;;;;;5049598;28;20036;-47
2022/11/26 03:49:23;;;;;;;26.30;12.23;;;7.10;99.90;;;;;;5069801;28;20036;-47
2022/11/26 03:51:48;;;;;;;29.02;12.98;;;7.10;99.90;;;;;;5049446;28;20029;-46
2022/11/26 03:54:14;;;;;;;27.13;11.32;;;7.20;99.90;;;;;;5069814;28;20037;-48
2022/11/26 03:56:39;;;;;;;22.98;11.05;;;7.20;99.90;;;;;;5049463;28;20075;-47
2022/11/26 03:59:05;;;;;;;25.27;11.95;;;7.20;99.90;;;;;;5069684;28;20028;-48
2022/11/26 04:01:30;;;;;;;36.53;14.25;;;7.30;99.90;;;;;;5049305;28;20029;-49
2022/11/26 04:03:56;;;;;;;30.23;12.77;;;7.30;99.90;;;;;;5069614;28;20576;-51
2022/11/26 04:06:21;;;;;;;33.33;13.15;;;7.30;99.90;;;;;;5046130;28;20028;-47
2022/11/26 04:08:47;;;;;;;27.33;11.25;;;7.30;99.90;;;;;;5069736;28;20086;-50
2022/11/26 04:11:13;;;;;;;29.00;13.13;;;7.40;99.90;;;;;;5049002;28;20246;-48
2022/11/26 04:13:38;;;;;;;30.70;13.23;;;7.40;99.90;;;;;;5069804;28;20050;-49
2022/11/26 04:16:04;;;;;;;26.00;11.27;;;7.40;99.90;;;;;;5048811;28;20513;-46
2022/11/26 04:18:29;;;;;;;31.30;13.40;;;7.40;99.90;;;;;;5069430;28;20036;-50
2022/11/26 04:20:55;;;;;;;37.35;13.68;;;7.40;99.90;;;;;;5048658;28;20037;-50
2022/11/26 04:23:20;;;;;;;28.75;12.80;;;7.50;99.90;;;;;;5069236;28;20040;-47
2022/11/26 04:25:46;;;;;;;28.98;11.85;;;7.50;99.90;;;;;;5059374;28;20503;-49
2022/11/26 04:28:12;;;;;;;24.88;11.23;;;7.50;99.90;;;;;;5050288;28;20492;-47
2022/11/26 04:30:37;;;;;;;31.90;13.40;;;7.50;99.90;;;;;;5066816;28;20036;-44
2022/11/26 04:33:03;;;;;;;26.08;12.30;;;7.50;99.90;;;;;;5050121;28;20036;-48
2022/11/26 04:35:28;;;;;;;28.80;11.73;;;7.60;99.90;;;;;;5067196;28;20037;-47
2022/11/26 04:37:54;;;;;;;30.67;12.23;;;7.60;99.90;;;;;;5050147;28;20040;-48
2022/11/26 04:40:19;;;;;;;37.42;13.85;;;7.60;99.90;;;;;;5066984;28;20045;-49
2022/11/26 04:42:45;;;;;;;32.13;12.73;;;7.60;99.90;;;;;;5069724;28;20503;-49
2022/11/26 04:45:10;;;;;;;33.10;12.25;;;7.60;99.90;;;;;;5053537;28;20404;-44
2022/11/26 04:47:36;;;;;;;33.78;12.90;;;7.70;99.90;;;;;;5069676;28;20040;-44
2022/11/26 04:50:01;;;;;;;29.63;12.15;;;7.70;99.90;;;;;;5052151;28;20077;-43
2022/11/26 04:52:27;;;;;;;30.38;12.75;;;7.70;99.90;;;;;;5069647;28;20472;-45
2022/11/26 04:54:52;;;;;;;31.70;13.75;;;7.70;99.90;;;;;;5050925;28;20052;-44
2022/11/26 04:57:18;;;;;;;31.92;12.55;;;7.70;99.90;;;;;;5069808;28;20103;-47
2022/11/26 04:59:44;;;;;;;36.25;12.88;;;7.70;99.90;;;;;;5049657;28;20036;-44
2022/11/26 05:02:09;;;;;;;32.33;12.40;;;7.70;99.90;;;;;;5069316;28;20590;-45
2022/11/26 05:04:35;;;;;;;37.15;12.32;;;7.70;99.90;;;;;;5048975;28;20403;-43
2022/11/26 05:07:00;;;;;;;35.80;12.25;;;7.70;99.90;;;;;;5043204;28;20055;-50
2022/11/26 05:09:26;;;;;;;31.80;11.50;;;7.80;99.90;;;;;;5068617;28;20416;-44
2022/11/26 05:11:51;;;;;;;30.73;12.32;;;7.80;99.90;;;;;;5067031;28;20028;-48
2022/11/26 05:14:17;;;;;;;37.17;14.38;;;7.80;99.90;;;;;;5049850;28;20063;-45
2022/11/26 05:16:42;;;;;;;35.03;13.57;;;7.80;99.90;;;;;;5048168;28;20037;-46
2022/11/26 05:19:08;;;;;;;43.15;13.80;;;7.80;99.90;;;;;;5068264;28;20043;-48
2022/11/26 05:21:33;;;;;;;39.40;14.63;;;7.80;99.90;;;;;;5047727;28;20488;-48
2022/11/26 05:23:59;;;;;;;37.85;15.07;;;7.90;99.90;;;;;;5067977;28;20029;-45
2022/11/26 05:26:24;;;;;;;39.45;14.35;;;7.80;99.90;;;;;;5047813;28;20025;-45
2022/11/26 05:28:50;;;;;;;43.63;15.40;;;7.90;99.90;;;;;;5068104;28;20029;-48
2022/11/26 05:31:15;;;;;;;34.05;12.80;;;7.90;99.90;;;;;;5047728;28;20050;-47
2022/11/26 05:33:41;;;;;;;37.05;12.95;;;7.90;99.90;;;;;;5067923;28;20031;-45
2022/11/26 05:36:07;;;;;;;32.53;13.23;;;7.90;99.90;;;;;;5047648;28;20396;-47
2022/11/26 05:38:32;;;;;;;34.05;12.88;;;7.90;99.90;;;;;;5067939;28;20028;-47
2022/11/26 05:40:57;;;;;;;31.17;13.90;;;7.90;99.90;;;;;;5047366;28;20045;-48
2022/11/26 05:43:23;;;;;;;30.83;12.63;;;7.90;99.90;;;;;;5067176;28;20033;-46
2022/11/26 05:45:49;;;;;;;34.33;12.73;;;7.90;99.90;;;;;;5057746;28;20029;-50
2022/11/26 05:48:14;;;;;;;26.38;11.50;;;8.00;99.90;;;;;;5049321;28;20068;-51
2022/11/26 05:50:40;;;;;;;33.15;13.18;;;8.00;99.90;;;;;;5065677;28;20031;-49
2022/11/26 05:53:05;;;;;;;31.33;12.38;;;8.00;99.90;;;;;;5049158;28;20191;-45
2022/11/26 05:55:31;;;;;;;28.10;12.75;;;8.00;99.90;;;;;;5065725;28;20082;-47
2022/11/26 05:57:56;;;;;;;37.33;13.73;;;8.00;99.90;;;;;;5049075;28;20037;-48
2022/11/26 06:00:22;;;;;;;38.10;15.30;;;8.00;99.90;;;;;;5065844;28;20035;-46
2022/11/26 06:02:48;;;;;;;40.35;14.70;;;8.00;99.90;;;;;;5068278;28;20043;-49
2022/11/26 06:05:13;;;;;;;39.17;14.02;;;8.00;99.90;;;;;;5045078;28;20069;-51
2022/11/26 06:07:39;;;;;;;32.60;14.88;;;8.00;99.90;;;;;;5051334;28;20046;-47
2022/11/26 06:10:05;;;;;;;29.45;14.05;;;8.00;99.90;;;;;;5068423;28;20024;-47
2022/11/26 06:12:31;;;;;;;28.83;12.35;;;8.00;99.90;;;;;;5050364;28;20492;-48
2022/11/26 06:14:56;;;;;;;30.67;12.63;;;8.10;99.90;;;;;;5068291;28;20369;-48
2022/11/26 06:17:22;;;;;;;31.27;12.95;;;8.10;99.90;;;;;;5049549;28;20107;-47
2022/11/26 06:19:47;;;;;;;28.52;12.57;;;8.10;99.90;;;;;;5068039;28;20480;-48
2022/11/26 06:22:13;;;;;;;33.00;13.35;;;8.10;99.90;;;;;;5048292;28;20029;-45
2022/11/26 06:24:38;;;;;;;34.25;12.85;;;8.10;99.90;;;;;;5068150;28;20024;-47
2022/11/26 06:27:04;;;;;;;38.78;14.85;;;8.10;99.90;;;;;;5047031;28;20040;-46
2022/11/26 06:29:29;;;;;;;33.90;14.55;;;8.10;99.90;;;;;;5068011;28;20028;-52
2022/11/26 06:31:55;;;;;;;37.35;13.02;;;8.10;99.90;;;;;;5048535;28;20397;-48
2022/11/26 06:34:21;;;;;;;34.60;14.27;;;8.20;99.90;;;;;;5046085;28;20032;-45
2022/11/26 06:36:46;;;;;;;25.58;12.50;;;8.20;99.90;;;;;;5048906;28;20107;-48
2022/11/26 06:39:12;;;;;;;32.58;13.80;;;8.20;99.90;;;;;;5067363;28;20029;-51
2022/11/26 06:41:37;;;;;;;29.80;13.23;;;8.20;99.90;;;;;;5046585;28;20045;-49
2022/11/26 06:44:03;;;;;;;33.58;14.30;;;8.20;99.90;;;;;;5067315;28;20054;-49
2022/11/26 06:46:32;;;;;;;30.80;13.48;;;8.20;99.90;;;;;;5046600;28;20047;-45
2022/11/26 06:49:05;;;;;;;33.08;14.77;;;8.20;99.90;;;;;;5067891;28;20149;-46
2022/11/26 06:51:31;;;;;;;38.33;15.80;;;8.20;99.90;;;;;;5046570;28;20025;-46
2022/11/26 06:53:57;;;;;;;34.97;13.80;;;8.20;99.90;;;;;;5068059;28;20035;-47
2022/11/26 06:56:23;;;;;;;25.25;13.07;;;8.30;99.90;;;;;;5050424;28;20028;-47
2022/11/26 06:58:50;;;;;;;43.13;15.85;;;8.30;99.90;;;;;;5071117;28;20518;-44
2022/11/26 07:01:19;;;;;;;28.73;12.70;;;8.30;99.90;;;;;;5050140;28;20090;-44
2022/11/26 07:03:45;;;;;;;31.60;13.52;;;8.30;99.90;;;;;;5052303;28;20025;-49
2022/11/26 07:06:22;;;;;;;37.47;14.20;;;8.30;99.90;;;;;;5055120;28;20051;-45
2022/11/26 07:08:48;;;;;;;35.78;14.65;;;8.30;99.90;;;;;;5049748;28;20035;-44
2022/11/26 07:11:14;;;;;;;31.75;13.25;;;8.30;99.90;;;;;;5067871;28;20064;-46
2022/11/26 07:13:40;;;;;;;28.52;12.70;;;8.30;99.90;;;;;;5070563;28;20074;-44
2022/11/26 07:16:06;;;;;;;29.02;13.68;;;8.30;99.90;;;;;;5053365;28;20028;-45
2022/11/26 07:18:31;;;;;;;27.88;14.05;;;8.30;99.90;;;;;;5062748;28;20029;-48
2022/11/26 07:21:06;;;;;;;30.55;13.93;;;8.30;99.90;;;;;;5051464;28;20541;-46
2022/11/26 07:23:31;;;;;;;25.35;11.82;;;8.30;99.90;;;;;;5070874;28;20377;-46
2022/11/26 07:25:58;;;;;;;26.00;12.60;;;8.30;99.90;;;;;;5051947;28;20040;-45
2022/11/26 07:28:24;;;;;;;26.60;13.48;;;8.30;99.90;;;;;;5051279;28;20056;-45
2022/11/26 07:30:49;;;;;;;30.20;13.23;;;8.30;99.90;;;;;;5068509;28;20452;-49
2022/11/26 07:33:15;;;;;;;25.58;11.98;;;8.40;99.90;;;;;;5071174;28;20029;-52
2022/11/26 07:35:40;;;;;;;29.77;13.05;;;8.40;99.90;;;;;;5050339;28;20067;-49
2022/11/26 07:38:06;;;;;;;29.83;12.95;;;8.40;99.90;;;;;;5071081;28;20509;-50
2022/11/26 07:40:31;;;;;;;29.55;12.38;;;8.40;99.90;;;;;;5059295;28;20047;-49
2022/11/26 07:42:59;;;;;;;30.35;13.40;;;8.40;99.90;;;;;;5049275;28;20064;-51
2022/11/26 07:45:24;;;;;;;26.42;12.45;;;8.50;99.90;;;;;;5070496;28;20037;-50
2022/11/26 07:47:50;;;;;;;23.38;10.93;;;8.50;99.90;;;;;;5049482;28;20127;-47
2022/11/26 07:50:15;;;;;;;19.17;10.98;;;8.50;99.90;;;;;;5070154;28;20396;-52
2022/11/26 07:52:41;;;;;;;23.58;11.88;;;8.50;99.90;;;;;;5049552;28;20032;-51
2022/11/26 07:55:07;;;;;;;23.95;10.88;;;8.50;99.90;;;;;;5070140;28;20067;-50
2022/11/26 07:57:32;;;;;;;25.70;10.18;;;8.50;99.90;;;;;;5049458;28;20056;-45
2022/11/26 07:59:58;;;;;;;24.42;10.82;;;8.60;99.90;;;;;;5069794;28;20052;-48
2022/11/26 08:02:23;;;;;;;23.65;11.25;;;8.60;99.90;;;;;;5049188;28;20033;-47
2022/11/26 08:04:49;;;;;;;25.85;10.68;;;8.60;99.90;;;;;;5060332;28;20512;-42
2022/11/26 08:07:14;;;;;;;23.30;10.45;;;8.60;99.90;;;;;;5061821;28;20024;-48
2022/11/26 08:09:40;;;;;;;23.48;11.27;;;8.60;99.90;;;;;;5050977;28;20057;-50
2022/11/26 08:12:05;;;;;;;25.50;10.35;;;8.60;99.90;;;;;;5055190;28;20070;-52
2022/11/26 08:14:31;;;;;;;27.85;11.95;;;8.60;99.90;;;;;;5069683;28;20047;-47
2022/11/26 08:16:57;;;;;;;28.77;12.15;;;8.60;99.90;;;;;;5048918;28;20028;-44
2022/11/26 08:19:22;;;;;;;31.42;12.00;;;8.60;99.90;;;;;;5069607;28;20757;-46
2022/11/26 08:21:48;;;;;;;24.02;10.20;;;8.60;99.90;;;;;;5058930;28;20422;-45
2022/11/26 08:24:16;;;;;;;26.17;11.00;;;8.70;99.90;;;;;;5050513;28;20124;-46
2022/11/26 08:26:43;;;;;;;23.08;10.00;;;8.60;99.90;;;;;;5067621;28;20032;-45
2022/11/26 08:29:09;;;;;;;26.10;11.90;;;8.70;99.90;;;;;;5050378;28;20481;-45
2022/11/26 08:31:35;;;;;;;22.67;10.50;;;8.70;99.90;;;;;;5067227;28;20086;-45
2022/11/26 08:34:02;;;;;;;20.40;9.35;;;8.80;99.90;;;;;;5050414;28;20021;-45
2022/11/26 08:36:29;;;;;;;24.13;10.57;;;8.80;99.90;;;;;;5053597;28;20029;-45
2022/11/26 08:38:56;;;;;;;25.50;10.88;;;8.90;99.90;;;;;;5069290;28;20032;-49
2022/11/26 08:41:21;;;;;;;23.52;10.70;;;8.90;99.90;;;;;;5048308;28;20097;-43
2022/11/26 08:43:47;;;;;;;18.50;8.65;;;8.90;99.90;;;;;;5068901;28;20044;-43
2022/11/26 08:46:12;;;;;;;19.48;9.80;;;9.00;99.90;;;;;;5048494;28;20041;-45
2022/11/26 08:48:38;;;;;;;16.20;8.43;;;9.00;99.90;;;;;;5068896;28;20043;-46
2022/11/26 08:51:09;;;;;;;22.40;10.18;;;9.10;99.90;;;;;;5058751;28;20400;-47
2022/11/26 08:53:35;;;;;;;21.25;9.15;;;9.00;99.90;;;;;;5049628;28;20029;-46
2022/11/26 08:56:07;;;;;;;20.58;9.15;;;9.10;99.90;;;;;;5066817;28;20557;-47
2022/11/26 08:58:34;;;;;;;19.42;8.77;;;9.10;99.90;;;;;;5049700;28;20108;-46
2022/11/26 09:01:08;;;;;;;25.02;9.32;;;9.10;99.90;;;;;;5066887;28;20040;-48
2022/11/26 09:03:33;;;;;;;20.58;8.10;;;9.10;99.90;;;;;;5029553;28;20049;-43
2022/11/26 09:06:03;;;;;;;17.95;7.97;;;9.10;99.90;;;;;;5062310;28;20130;-51
2022/11/26 09:08:30;;;;;;;20.33;9.05;;;9.20;99.90;;;;;;5049644;28;20028;-51
2022/11/26 09:10:56;;;;;;;15.38;7.43;;;9.20;99.90;;;;;;5066569;28;20170;-45
2022/11/26 09:13:21;;;;;;;20.55;6.90;;;9.20;99.90;;;;;;5049844;28;20115;-46
2022/11/26 09:15:48;;;;;;;16.40;7.03;;;9.20;99.90;;;;;;5066361;28;20033;-48
2022/11/26 09:18:14;;;;;;;13.98;6.80;;;9.30;99.90;;;;;;5049300;28;20055;-46
2022/11/26 09:20:39;;;;;;;17.55;7.05;;;9.30;99.90;;;;;;5066303;28;20494;-49
2022/11/26 09:23:05;;;;;;;20.58;7.07;;;9.30;99.90;;;;;;5069030;28;20040;-45
2022/11/26 09:25:30;;;;;;;18.35;6.30;;;9.30;99.90;;;;;;5053627;28;20020;-46
2022/11/26 09:27:56;;;;;;;16.90;5.88;;;9.30;99.90;;;;;;5069036;28;20033;-46
2022/11/26 09:30:21;;;;;;;14.90;6.00;;;9.30;99.90;;;;;;5052283;28;20108;-49
2022/11/26 09:32:47;;;;;;;14.57;6.18;;;9.30;99.90;;;;;;5068842;28;20115;-46
2022/11/26 09:35:12;;;;;;;12.32;5.82;;;9.30;99.90;;;;;;5050802;28;20024;-47
2022/11/26 09:37:38;;;;;;;18.77;5.95;;;9.30;99.90;;;;;;5068842;28;20024;-44
2022/11/26 09:40:04;;;;;;;15.85;5.32;;;9.30;99.90;;;;;;5047811;28;20524;-46
2022/11/26 09:42:39;;;;;;;15.52;5.43;;;9.30;99.90;;;;;;5048777;28;20029;-49
2022/11/26 09:45:21;;;;;;;16.70;5.82;;;9.30;99.90;;;;;;5032082;28;20060;-48
2022/11/26 09:47:51;;;;;;;13.52;5.38;;;9.30;99.90;;;;;;5068532;28;20077;-50
2022/11/26 09:50:28;;;;;;;12.10;5.22;;;9.40;99.90;;;;;;5050783;28;20443;-43
2022/11/26 09:53:08;;;;;;;11.85;4.88;;;9.40;99.90;;;;;;5068601;28;20094;-43
2022/11/26 09:55:41;;;;;;;17.15;5.57;;;9.40;99.90;;;;;;5039927;28;20089;-47
2022/11/26 09:58:18;;;;;;;15.00;5.22;;;9.40;99.90;;;;;;5068633;28;20028;-44
2022/11/26 10:00:55;;;;;;;9.82;3.97;;;9.30;99.90;;;;;;5054366;28;20020;-51
2022/11/26 10:03:24;;;;;;;10.68;4.07;;;9.40;99.90;;;;;;5028592;28;20037;-47
2022/11/26 10:06:29;;;;;;;11.18;4.60;;;9.30;99.90;;;;;;5053280;28;20033;-45
2022/11/26 10:09:19;;;;;;;11.00;4.15;;;9.40;99.90;;;;;;5028580;28;20041;-49
2022/11/26 10:12:25;;;;;;;10.50;4.35;;;9.30;99.90;;;;;;5043022;28;20025;-43
2022/11/26 10:15:02;;;;;;;12.85;4.30;;;9.40;99.90;;;;;;5027709;28;20090;-49
2022/11/26 10:18:12;;;;;;;8.50;3.70;;;9.30;99.90;;;;;;5068396;28;20071;-49
2022/11/26 10:20:49;;;;;;;10.63;4.25;;;9.30;99.90;;;;;;5013656;28;20045;-46
2022/11/26 10:23:26;;;;;;;8.40;3.60;;;9.30;99.90;;;;;;5067566;28;20614;-45
2022/11/26 10:26:11;;;;;;;10.05;3.63;;;9.30;99.90;;;;;;5044407;28;20455;-45
2022/11/26 10:28:49;;;;;;;8.25;3.05;;;9.30;99.90;;;;;;5028431;28;20488;-44
2022/11/26 10:31:24;;;;;;;11.07;3.13;;;9.30;99.90;;;;;;5057834;28;20557;-49
2022/11/26 10:34:00;;;;;;;7.50;2.75;;;9.30;99.90;;;;;;5072052;28;20039;-42
2022/11/26 10:36:38;;;;;;;9.98;2.63;;;9.30;99.90;;;;;;5044254;28;20120;-49
2022/11/26 10:39:06;;;;;;;13.65;2.35;;;9.30;99.90;;;;;;5032350;28;20049;-46
2022/11/26 10:41:34;;;;;;;12.95;2.78;;;9.40;99.90;;;;;;5054904;28;20059;-46
2022/11/26 10:44:27;;;;;;;7.90;2.42;;;9.40;99.90;;;;;;5071542;28;20033;-49
2022/11/26 10:46:53;;;;;;;12.27;2.70;;;9.50;99.90;;;;;;5050728;28;20036;-51
2022/11/26 10:49:25;;;;;;;10.35;2.38;;;9.50;99.90;;;;;;5071286;28;20032;-49
2022/11/26 10:51:59;;;;;;;6.93;2.20;;;9.50;99.90;;;;;;5047364;28;20159;-46
2022/11/26 10:54:34;;;;;;;7.38;2.83;;;9.50;99.90;;;;;;5032028;28;20036;-45
2022/11/26 10:57:09;;;;;;;5.20;2.67;;;9.50;99.90;;;;;;5048467;28;20059;-47
2022/11/26 10:59:50;;;;;;;14.43;3.22;;;9.50;99.90;;;;;;5071081;28;20525;-47
2022/11/26 11:02:27;;;;;;;11.00;3.60;;;9.50;99.90;;;;;;5031841;28;20572;-47
2022/11/26 11:04:55;;;;;;;13.82;3.80;;;9.50;99.90;;;;;;5031658;28;20048;-48
2022/11/26 11:07:33;;;;;;;11.63;3.50;;;9.50;99.90;;;;;;5051804;28;20053;-47
2022/11/26 11:10:07;;;;;;;13.43;3.97;;;9.50;99.90;;;;;;5068631;28;20517;-47
2022/11/26 11:12:40;;;;;;;7.13;3.95;;;9.40;99.90;;;;;;5071600;28;20085;-43
2022/11/26 11:15:24;;;;;;;9.82;4.10;;;9.40;99.90;;;;;;5034889;28;20145;-48
2022/11/26 11:18:18;;;;;;;12.63;4.35;;;9.50;99.90;;;;;;5071390;28;20104;-46
2022/11/26 11:20:55;;;;;;;13.90;4.80;;;9.40;99.90;;;;;;5041907;28;20535;-48
2022/11/26 11:23:24;;;;;;;11.98;5.05;;;9.40;99.90;;;;;;5031532;28;20037;-49
2022/11/26 11:26:01;;;;;;;17.30;5.20;;;9.40;99.90;;;;;;5068853;28;20485;-47
2022/11/26 11:28:32;;;;;;;19.88;5.60;;;9.40;99.90;;;;;;5051356;28;20116;-46
2022/11/26 11:31:11;;;;;;;15.32;5.72;;;9.40;99.90;;;;;;5068713;28;20052;-46
2022/11/26 11:33:37;;;;;;;17.20;5.22;;;9.40;99.90;;;;;;5031259;28;20026;-51
2022/11/26 11:36:14;;;;;;;13.63;5.22;;;9.40;99.90;;;;;;5067599;28;20051;-44
2022/11/26 11:38:51;;;;;;;15.70;4.97;;;9.40;99.90;;;;;;5031084;28;20669;-47
2022/11/26 11:41:28;;;;;;;16.65;5.07;;;9.40;99.90;;;;;;5054431;28;20622;-48
2022/11/26 11:44:16;;;;;;;10.93;3.97;;;9.50;99.90;;;;;;5031017;28;20040;-48
2022/11/26 11:47:13;;;;;;;15.25;5.18;;;9.50;99.90;;;;;;5045016;28;20017;-48
2022/11/26 11:49:54;;;;;;;14.75;5.05;;;9.50;99.90;;;;;;5031050;28;20045;-47
2022/11/26 11:52:36;;;;;;;14.25;6.15;;;9.50;99.90;;;;;;5030962;28;20582;-50
2022/11/26 11:55:20;;;;;;;15.00;6.45;;;9.50;99.90;;;;;;5032998;28;20159;-51
2022/11/26 11:57:51;;;;;;;16.20;6.20;;;9.60;99.90;;;;;;5070696;28;20024;-45
2022/11/26 12:00:40;;;;;;;18.92;7.22;;;9.60;99.90;;;;;;5052883;28;20467;-51
2022/11/26 12:03:25;;;;;;;18.15;6.80;;;9.60;99.90;;;;;;5070618;28;20032;-48
2022/11/26 12:06:09;;;;;;;14.98;7.03;;;9.60;99.90;;;;;;5039879;28;20044;-50
2022/11/26 12:08:53;;;;;;;12.50;5.60;;;9.60;99.90;;;;;;5030824;28;20741;-47
2022/11/26 12:11:43;;;;;;;10.93;4.85;;;9.60;99.90;;;;;;5054531;28;20112;-43
2022/11/26 12:14:27;;;;;;;10.77;5.03;;;9.60;99.90;;;;;;5030523;28;20026;-53
2022/11/26 12:17:00;;;;;;;15.13;5.13;;;9.60;99.90;;;;;;5049484;28;20033;-51
2022/11/26 12:19:43;;;;;;;12.23;4.60;;;9.50;99.90;;;;;;5030449;28;20041;-49
2022/11/26 12:22:35;;;;;;;7.72;4.35;;;9.50;99.90;;;;;;5048276;28;20029;-47
2022/11/26 12:25:18;;;;;;;11.45;4.28;;;9.50;99.90;;;;;;5032576;28;20037;-52
2022/11/26 12:27:51;;;;;;;10.90;4.50;;;9.50;99.90;;;;;;5070156;28;20067;-51
2022/11/26 12:30:26;;;;;;;11.63;4.00;;;9.50;99.90;;;;;;5036749;28;20523;-49
2022/11/26 12:33:08;;;;;;;11.45;4.10;;;9.50;99.90;;;;;;5070121;28;20025;-52
2022/11/26 12:35:38;;;;;;;9.68;3.65;;;9.50;99.90;;;;;;5041147;28;20412;-51
2022/11/26 12:38:12;;;;;;;11.35;3.60;;;9.60;99.90;;;;;;5069961;28;20489;-52
2022/11/26 12:40:44;;;;;;;9.13;3.65;;;9.70;99.90;;;;;;5038544;28;20128;-47
2022/11/26 12:43:35;;;;;;;9.25;4.65;;;9.70;99.90;;;;;;5029988;28;20168;-51
2022/11/26 12:46:09;;;;;;;17.85;4.68;;;9.70;99.90;;;;;;5048603;28;20045;-51
2022/11/26 12:48:50;;;;;;;14.30;4.45;;;9.70;99.90;;;;;;5029898;28;20112;-51
2022/11/26 12:51:30;;;;;;;14.38;4.20;;;9.70;99.90;;;;;;5052373;28;20527;-48
2022/11/26 12:54:08;;;;;;;13.30;4.25;;;9.80;99.90;;;;;;5029605;28;20040;-50
2022/11/26 12:56:55;;;;;;;8.60;4.03;;;9.80;99.90;;;;;;5042755;28;20035;-46